Time;durP1;ratioP1;P1;durP2;ratioP2;P2;SDS_P1;SDS_P2;PMS_P1;PMS_P2;Temp;Humidity;BMP_temperature;BMP_pressure;BME280_temperature;BME280_humidity;BME280_pressure;Samples;Min_cycle;Max_cycle;Signal;HPM_P1;HPM_P2
2022/07/15 00:00:01;;;;;;;0.80;0.73;;;24.50;47.00;23.70;101724.00;;;;5026525;28;20120;-65
2022/07/15 00:02:47;;;;;;;2.13;0.75;;;24.50;47.00;23.70;101732.00;;;;5025780;28;20406;-66
2022/07/15 00:05:34;;;;;;;1.33;0.50;;;24.50;47.00;23.70;101723.00;;;;5025903;28;20048;-66
2022/07/15 00:08:20;;;;;;;1.52;0.52;;;24.50;47.00;23.70;101733.00;;;;5023208;28;20036;-65
2022/07/15 00:11:06;;;;;;;1.70;0.80;;;24.40;47.00;23.70;101737.00;;;;5027118;28;20084;-65
2022/07/15 00:13:52;;;;;;;1.75;0.52;;;24.50;47.00;23.70;101732.00;;;;5024764;28;20041;-66
2022/07/15 00:16:38;;;;;;;1.35;0.57;;;24.50;47.00;23.70;101734.00;;;;5021734;28;20041;-65
2022/07/15 00:19:24;;;;;;;1.02;0.50;;;24.50;47.00;23.70;101741.00;;;;5030294;28;20055;-65
2022/07/15 00:22:11;;;;;;;2.40;0.93;;;24.50;47.10;23.70;101734.00;;;;5025312;28;20664;-66
2022/07/15 00:24:57;;;;;;;0.82;0.57;;;24.40;47.00;23.60;101728.00;;;;5029338;28;20077;-66
2022/07/15 00:28:01;;;;;;;1.88;0.52;;;24.40;47.00;23.60;101730.00;;;;5029540;28;20127;-65
2022/07/15 00:30:47;;;;;;;1.45;0.65;;;24.50;47.10;23.60;101735.00;;;;5030544;28;20132;-65
2022/07/15 00:33:33;;;;;;;2.15;0.73;;;24.30;47.00;23.60;101732.00;;;;5027400;28;20303;-66
2022/07/15 00:36:19;;;;;;;0.50;0.50;;;24.40;47.00;23.60;101729.00;;;;5029749;28;20033;-65
2022/07/15 00:39:06;;;;;;;2.50;0.80;;;24.40;47.10;23.60;101743.00;;;;5033861;28;20574;-65
2022/07/15 00:41:52;;;;;;;3.45;1.00;;;24.40;47.10;23.60;101735.00;;;;5023474;28;20045;-66
2022/07/15 00:44:38;;;;;;;2.92;0.80;;;24.40;47.10;23.60;101728.00;;;;5026098;28;20064;-65
2022/07/15 00:47:24;;;;;;;2.33;0.70;;;24.40;47.10;23.60;101733.00;;;;5026516;28;20246;-65
2022/07/15 00:50:10;;;;;;;2.63;0.68;;;24.40;47.20;23.60;101738.00;;;;5025353;28;20049;-65
2022/07/15 00:53:02;;;;;;;1.70;0.57;;;24.30;47.10;23.60;101731.00;;;;5030067;28;20045;-66
2022/07/15 00:55:49;;;;;;;2.05;0.63;;;24.40;47.20;23.60;101732.00;;;;5028043;28;20053;-66
2022/07/15 00:58:39;;;;;;;4.25;0.95;;;24.40;47.20;23.50;101726.00;;;;5029409;28;20091;-65
2022/07/15 01:01:26;;;;;;;2.42;0.70;;;24.30;47.10;23.50;101725.00;;;;5022294;28;20064;-66
2022/07/15 01:04:12;;;;;;;1.33;0.52;;;24.30;47.10;23.50;101731.00;;;;5026035;28;20049;-65
2022/07/15 01:06:58;;;;;;;1.27;0.70;;;24.30;47.20;23.50;101736.00;;;;5026573;28;20147;-65
2022/07/15 01:09:45;;;;;;;2.65;0.77;;;24.30;47.20;23.50;101744.00;;;;5030107;28;20041;-65
2022/07/15 01:12:32;;;;;;;1.83;0.60;;;24.30;47.10;23.50;101744.00;;;;5021434;28;20049;-65
2022/07/15 01:15:18;;;;;;;1.15;0.60;;;24.30;47.20;23.50;101749.00;;;;5040475;28;20069;-65
2022/07/15 01:18:04;;;;;;;3.50;0.82;;;24.30;47.20;23.50;101742.00;;;;5027676;28;20825;-65
2022/07/15 01:20:50;;;;;;;2.42;0.60;;;24.20;47.10;23.50;101740.00;;;;5017867;28;20440;-65
2022/07/15 01:23:40;;;;;;;4.30;1.08;;;24.20;47.10;23.50;101748.00;;;;5031404;28;20045;-65
2022/07/15 01:26:42;;;;;;;1.45;0.60;;;24.30;47.20;23.50;101747.00;;;;5023699;28;20146;-65
2022/07/15 01:29:28;;;;;;;3.38;0.90;;;24.20;47.10;23.50;101749.00;;;;5024434;28;20387;-65
2022/07/15 01:32:14;;;;;;;1.73;0.90;;;24.20;47.10;23.40;101752.00;;;;5024719;28;20573;-65
2022/07/15 01:35:00;;;;;;;2.40;0.88;;;24.20;47.10;23.40;101752.00;;;;5021060;28;20076;-65
2022/07/15 01:37:46;;;;;;;1.10;0.90;;;24.20;47.10;23.40;101749.00;;;;5026986;28;20044;-66
2022/07/15 01:40:32;;;;;;;2.65;0.63;;;24.20;47.10;23.40;101757.00;;;;5021819;28;20042;-65
2022/07/15 01:43:19;;;;;;;2.65;0.98;;;24.20;47.10;23.40;101759.00;;;;5032408;28;20041;-65
2022/07/15 01:46:05;;;;;;;3.65;0.73;;;24.20;47.10;23.40;101757.00;;;;5027118;28;20057;-65
2022/07/15 01:51:56;;;;;;;1.73;0.60;;;24.10;47.10;23.30;101755.00;;;;5022808;28;20152;-65
2022/07/15 01:54:42;;;;;;;2.07;0.83;;;24.20;47.10;23.30;101750.00;;;;5040342;28;20095;-66
2022/07/15 01:57:28;;;;;;;2.47;1.02;;;24.10;47.10;23.30;101759.00;;;;5027546;28;20290;-66
2022/07/15 02:00:16;;;;;;;1.90;0.70;;;24.10;47.10;23.30;101762.00;;;;5027819;28;20045;-65
2022/07/15 02:03:02;;;;;;;;;;;24.10;47.10;23.30;101762.00;;;;5023302;28;20120;-65
2022/07/15 02:05:48;;;;;;;2.78;0.80;;;24.10;47.20;23.30;101770.00;;;;5021015;28;19917;-66
2022/07/15 02:08:34;;;;;;;1.75;0.60;;;24.10;47.10;23.30;101768.00;;;;5028637;28;20044;-65
2022/07/15 02:11:20;;;;;;;2.75;0.98;;;24.10;47.10;23.30;101756.00;;;;5027395;28;20478;-65
2022/07/15 02:14:07;;;;;;;2.55;0.80;;;24.10;47.10;23.30;101766.00;;;;5023060;28;20061;-65
2022/07/15 02:16:53;;;;;;;1.80;0.70;;;24.10;47.10;23.30;101768.00;;;;5019798;28;20398;-65
2022/07/15 02:19:39;;;;;;;2.08;0.70;;;24.00;47.10;23.30;101764.00;;;;5025334;28;20096;-65
2022/07/15 02:22:25;;;;;;;1.40;0.65;;;24.00;47.00;23.30;101767.00;;;;5026736;28;20096;-65
2022/07/15 02:25:11;;;;;;;1.55;0.73;;;24.00;47.10;23.30;101770.00;;;;5023547;28;20049;-66
2022/07/15 02:28:03;;;;;;;1.73;0.57;;;24.00;47.10;23.30;101763.00;;;;5022722;28;20045;-65
2022/07/15 02:30:49;;;;;;;1.17;0.63;;;24.00;47.10;23.30;101762.00;;;;5021397;28;20506;-66
2022/07/15 02:33:35;;;;;;;1.10;0.60;;;24.00;47.10;23.20;101760.00;;;;5021110;28;20048;-65
2022/07/15 02:36:21;;;;;;;2.72;0.90;;;24.00;47.10;23.20;101760.00;;;;5023041;28;20173;-66
2022/07/15 02:39:07;;;;;;;2.50;0.80;;;24.00;47.10;23.20;101752.00;;;;5027690;28;20049;-65
2022/07/15 02:41:53;;;;;;;1.83;0.60;;;24.00;47.10;23.20;101756.00;;;;5016954;28;20033;-65
2022/07/15 02:44:39;;;;;;;3.10;0.90;;;24.00;47.10;23.20;101767.00;;;;5022948;28;20045;-66
2022/07/15 02:47:25;;;;;;;1.13;0.65;;;24.00;47.10;23.20;101763.00;;;;5025428;28;20037;-66
2022/07/15 02:50:11;;;;;;;1.60;0.60;;;23.90;47.10;23.20;101759.00;;;;5022407;28;20132;-65
2022/07/15 02:52:57;;;;;;;2.28;0.45;;;23.90;47.00;23.20;101766.00;;;;5019999;28;20807;-65
2022/07/15 02:55:44;;;;;;;2.40;0.70;;;23.90;47.00;23.20;101762.00;;;;5024484;28;20040;-65
2022/07/15 02:58:30;;;;;;;1.92;0.50;;;23.90;47.10;23.20;101767.00;;;;5033034;28;20409;-66
2022/07/15 03:01:16;;;;;;;1.77;0.50;;;23.90;47.00;23.20;101767.00;;;;5019797;28;20060;-65
2022/07/15 03:04:03;;;;;;;1.95;0.63;;;23.90;47.00;23.20;101764.00;;;;5022681;28;20057;-65
2022/07/15 03:06:50;;;;;;;2.22;0.90;;;23.90;47.00;23.10;101763.00;;;;5019867;28;20064;-65
2022/07/15 03:09:36;;;;;;;2.05;0.50;;;23.90;47.00;23.10;101769.00;;;;5020618;28;20045;-65
2022/07/15 03:12:22;;;;;;;2.90;0.90;;;23.90;47.00;23.10;101774.00;;;;5020024;28;20042;-65
2022/07/15 03:15:11;;;;;;;1.90;0.95;;;23.80;46.90;23.10;101780.00;;;;5021821;28;20045;-65
2022/07/15 03:17:57;;;;;;;1.13;0.50;;;23.80;46.90;23.10;101774.00;;;;5022635;28;20088;-65
2022/07/15 03:20:45;;;;;;;1.25;0.80;;;23.80;46.90;23.10;101777.00;;;;5022666;28;20041;-65
2022/07/15 03:23:31;;;;;;;2.15;0.77;;;23.80;46.90;23.10;101781.00;;;;5024829;28;20047;-66
2022/07/15 03:26:18;;;;;;;3.88;0.68;;;23.80;46.90;23.10;101784.00;;;;5022868;28;20037;-65
2022/07/15 03:29:04;;;;;;;1.90;0.40;;;23.80;46.90;23.10;101789.00;;;;5031241;28;20049;-65
2022/07/15 03:31:50;;;;;;;2.28;0.70;;;23.80;46.90;23.10;101785.00;;;;5019158;28;20042;-65
2022/07/15 03:34:37;;;;;;;0.90;0.50;;;23.80;47.00;23.10;101786.00;;;;5030681;28;20045;-65
2022/07/15 03:37:23;;;;;;;2.55;0.90;;;23.80;47.00;23.10;101796.00;;;;5018198;28;20120;-66
2022/07/15 03:40:10;;;;;;;2.45;0.73;;;23.80;47.00;23.10;101797.00;;;;5019211;28;20038;-65
2022/07/15 03:42:56;;;;;;;1.88;1.00;;;23.80;47.00;23.10;101796.00;;;;5025210;28;20077;-65
2022/07/15 03:45:42;;;;;;;2.63;0.68;;;23.80;47.00;23.10;101793.00;;;;5015028;28;20045;-66
2022/07/15 03:48:28;;;;;;;1.73;0.60;;;23.80;47.10;23.10;101794.00;;;;5020640;28;20041;-65
2022/07/15 03:51:15;;;;;;;2.25;0.80;;;23.80;47.00;23.10;101800.00;;;;5020101;28;20508;-65
2022/07/15 03:54:02;;;;;;;2.40;0.68;;;23.70;46.90;23.10;101800.00;;;;5020130;28;20046;-66
2022/07/15 03:56:48;;;;;;;4.07;0.70;;;23.80;46.90;23.00;101803.00;;;;5021583;28;20307;-65
2022/07/15 03:59:34;;;;;;;0.90;0.50;;;23.80;46.90;23.00;101801.00;;;;5017908;28;20475;-65
2022/07/15 04:02:20;;;;;;;2.38;0.65;;;23.80;47.00;23.00;101799.00;;;;5019357;28;20045;-65
2022/07/15 04:05:07;;;;;;;2.15;0.90;;;23.80;46.90;23.00;101805.00;;;;5015132;28;20048;-66
2022/07/15 04:07:53;;;;;;;2.30;0.77;;;23.80;46.90;23.00;101810.00;;;;5025841;28;20049;-65
2022/07/15 04:10:39;;;;;;;0.93;0.68;;;23.80;47.00;23.00;101812.00;;;;5018544;28;20045;-65
2022/07/15 04:13:25;;;;;;;2.15;0.80;;;23.80;46.90;23.00;101822.00;;;;5024312;28;20044;-65
2022/07/15 04:16:14;;;;;;;1.90;0.88;;;23.80;47.00;23.00;101821.00;;;;5022192;28;20037;-65
2022/07/15 04:19:00;;;;;;;3.40;0.80;;;23.80;46.90;23.10;101823.00;;;;5030266;28;20065;-65
2022/07/15 04:21:46;;;;;;;1.73;0.73;;;23.80;46.90;23.00;101823.00;;;;5019031;28;20038;-65
2022/07/15 04:24:32;;;;;;;3.58;1.08;;;23.80;46.90;23.00;101823.00;;;;5028297;28;20041;-65
2022/07/15 04:27:18;;;;;;;2.60;0.98;;;23.80;46.80;23.00;101832.00;;;;5022315;28;20053;-65
2022/07/15 04:30:06;;;;;;;2.83;0.73;;;23.80;46.90;23.00;101826.00;;;;5028923;28;20064;-65
2022/07/15 04:32:52;;;;;;;1.88;0.80;;;23.80;46.90;23.10;101834.00;;;;5017629;28;20145;-65
2022/07/15 04:35:38;;;;;;;2.03;1.02;;;23.80;46.90;23.00;101841.00;;;;5021573;28;20073;-66
2022/07/15 04:38:24;;;;;;;1.65;0.63;;;23.70;46.90;23.00;101833.00;;;;5023691;28;20039;-65
2022/07/15 04:41:10;;;;;;;2.60;0.85;;;23.80;46.90;23.00;101848.00;;;;5019676;28;20077;-65
2022/07/15 04:43:56;;;;;;;1.73;0.57;;;23.80;47.00;23.00;101843.00;;;;5024764;28;20049;-65
2022/07/15 04:46:42;;;;;;;1.88;0.52;;;23.70;46.90;23.00;101850.00;;;;5024279;28;20384;-65
2022/07/15 04:52:34;;;;;;;3.05;0.73;;;23.80;47.10;23.00;101851.00;;;;5025641;28;20033;-65
2022/07/15 04:55:20;;;;;;;1.48;0.70;;;23.90;47.00;23.10;101854.00;;;;5024218;28;20539;-66
2022/07/15 04:58:06;;;;;;;1.98;0.80;;;23.80;47.00;23.10;101853.00;;;;5022511;28;20038;-65
2022/07/15 05:00:52;;;;;;;2.38;0.70;;;23.80;47.00;23.00;101853.00;;;;5021579;28;20403;-65
2022/07/15 05:03:39;;;;;;;2.63;0.82;;;23.80;46.90;23.10;101850.00;;;;5022509;28;20470;-66
2022/07/15 05:06:25;;;;;;;2.00;0.95;;;23.80;46.90;23.10;101853.00;;;;5019319;28;20535;-65
2022/07/15 05:09:11;;;;;;;2.63;0.57;;;23.80;47.00;23.00;101854.00;;;;5023433;28;20139;-65
2022/07/15 05:11:57;;;;;;;2.22;0.60;;;23.90;47.00;23.10;101850.00;;;;5021056;28;20047;-65
2022/07/15 05:14:43;;;;;;;1.00;0.70;;;23.80;47.10;23.10;101854.00;;;;5027554;28;20041;-65
2022/07/15 05:17:30;;;;;;;1.45;0.50;;;23.80;47.20;23.10;101844.00;;;;5026453;28;20068;-66
2022/07/15 05:20:16;;;;;;;2.33;0.90;;;23.80;47.10;23.10;101853.00;;;;5031451;28;20049;-65
2022/07/15 05:23:03;;;;;;;2.63;0.90;;;23.80;47.10;23.10;101855.00;;;;5023297;28;20049;-66
2022/07/15 05:25:49;;;;;;;1.37;0.70;;;23.80;47.10;23.10;101859.00;;;;5023417;28;20045;-65
2022/07/15 05:28:35;;;;;;;1.08;0.60;;;23.80;47.10;23.10;101854.00;;;;5025224;28;20042;-65
2022/07/15 05:31:22;;;;;;;5.07;0.80;;;23.80;47.00;23.10;101853.00;;;;5024248;28;20823;-65
2022/07/15 05:34:08;;;;;;;2.30;0.90;;;23.80;47.10;23.10;101848.00;;;;5027679;28;20041;-65
2022/07/15 05:36:54;;;;;;;2.42;1.05;;;23.90;47.20;23.10;101851.00;;;;5023201;28;20041;-65
2022/07/15 05:39:53;;;;;;;2.25;0.90;;;23.90;47.10;23.10;101848.00;;;;5024046;28;20044;-65
2022/07/15 05:42:46;;;;;;;2.58;0.68;;;23.80;47.20;23.10;101863.00;;;;5024766;28;20585;-65
2022/07/15 05:45:32;;;;;;;1.58;0.80;;;23.80;47.20;23.10;101857.00;;;;5026476;28;20047;-65
2022/07/15 05:48:18;;;;;;;3.33;0.77;;;23.80;47.20;23.10;101863.00;;;;5023605;28;20226;-65
2022/07/15 05:51:05;;;;;;;1.90;0.90;;;23.90;47.30;23.10;101860.00;;;;5020145;28;20045;-65
2022/07/15 05:53:51;;;;;;;2.30;0.73;;;23.80;47.30;23.10;101864.00;;;;5024088;28;20038;-65
2022/07/15 05:56:37;;;;;;;1.98;0.80;;;23.90;47.30;23.10;101860.00;;;;5021329;28;20034;-65
2022/07/15 05:59:23;;;;;;;1.60;0.85;;;23.90;47.20;23.10;101863.00;;;;5020530;28;20333;-65
2022/07/15 06:02:09;;;;;;;1.13;0.73;;;23.90;48.10;23.10;101874.00;;;;5024431;28;20037;-65
2022/07/15 06:04:55;;;;;;;2.17;0.90;;;23.90;47.30;23.10;101869.00;;;;5022197;28;20041;-65
2022/07/15 06:07:41;;;;;;;3.00;0.70;;;23.90;47.10;23.10;101874.00;;;;5025114;28;20042;-65
2022/07/15 06:10:28;;;;;;;3.35;0.93;;;23.90;47.20;23.10;101869.00;;;;5020216;28;20037;-65
2022/07/15 06:13:14;;;;;;;1.83;0.85;;;23.90;47.40;23.10;101864.00;;;;5025992;28;20050;-65
2022/07/15 06:16:00;;;;;;;3.13;0.60;;;23.80;47.30;23.10;101864.00;;;;5022449;28;20045;-65
2022/07/15 06:18:48;;;;;;;2.58;1.00;;;23.90;47.20;23.10;101873.00;;;;5025271;28;20250;-68
2022/07/15 06:21:35;;;;;;;1.52;0.70;;;23.90;47.30;23.10;101880.00;;;;5021424;28;20121;-65
2022/07/15 06:24:21;;;;;;;2.35;0.80;;;23.90;47.30;23.10;101870.00;;;;5033625;28;20146;-66
2022/07/15 06:27:07;;;;;;;2.75;1.20;;;23.90;47.20;23.10;101864.00;;;;5022807;28;20128;-65
2022/07/15 06:29:53;;;;;;;2.85;0.98;;;23.90;47.30;23.10;101861.00;;;;5019845;28;20743;-65
2022/07/15 06:32:39;;;;;;;2.72;0.70;;;23.90;47.10;23.10;101857.00;;;;5022860;28;20041;-65
2022/07/15 06:35:25;;;;;;;1.73;0.82;;;23.90;47.50;23.10;101859.00;;;;5023851;28;20391;-65
2022/07/15 06:38:11;;;;;;;3.22;0.82;;;23.90;47.40;23.10;101859.00;;;;5027318;28;20048;-66
2022/07/15 06:40:58;;;;;;;2.33;1.00;;;23.90;47.30;23.10;101855.00;;;;5020394;28;20383;-65
2022/07/15 06:43:45;;;;;;;2.60;0.95;;;23.90;47.40;23.10;101860.00;;;;5020709;28;20045;-66
2022/07/15 06:46:31;;;;;;;1.75;0.57;;;23.90;47.50;23.10;101855.00;;;;5023277;28;20078;-66
2022/07/15 06:49:17;;;;;;;2.33;0.80;;;23.90;47.20;23.10;101853.00;;;;5020133;28;20060;-66
2022/07/15 06:52:03;;;;;;;2.20;0.70;;;23.90;48.00;23.10;101859.00;;;;5023083;28;20045;-65
2022/07/15 06:54:49;;;;;;;2.85;0.80;;;23.90;47.50;23.10;101848.00;;;;5018843;28;20293;-66
2022/07/15 06:57:36;;;;;;;2.85;0.80;;;23.80;47.40;23.10;101850.00;;;;5025526;28;20137;-66
2022/07/15 07:00:22;;;;;;;2.70;0.80;;;23.90;47.40;23.10;101856.00;;;;5024476;28;20041;-66
2022/07/15 07:03:08;;;;;;;2.10;0.70;;;24.00;47.10;23.10;101844.00;;;;5019491;28;20049;-66
2022/07/15 07:05:54;;;;;;;1.92;0.70;;;24.00;46.90;23.10;101843.00;;;;5019131;28;20523;-66
2022/07/15 07:08:40;;;;;;;2.85;0.68;;;24.00;47.10;23.10;101847.00;;;;5024757;28;20037;-66
2022/07/15 07:11:26;;;;;;;3.45;0.70;;;24.00;47.30;23.10;101844.00;;;;5025435;28;20382;-66
2022/07/15 07:14:12;;;;;;;2.17;1.38;;;24.00;47.20;23.10;101847.00;;;;5019449;28;20585;-66
2022/07/15 07:16:58;;;;;;;2.95;0.70;;;24.00;47.30;23.10;101841.00;;;;5016483;28;20052;-66
2022/07/15 07:19:44;;;;;;;1.98;0.70;;;24.00;47.30;23.10;101855.00;;;;5028084;28;20037;-66
2022/07/15 07:22:30;;;;;;;2.00;0.50;;;24.00;47.20;23.10;101850.00;;;;5019638;28;20494;-66
2022/07/15 07:25:16;;;;;;;3.08;0.70;;;24.00;47.30;23.10;101855.00;;;;5018545;28;20061;-66
2022/07/15 07:28:03;;;;;;;2.63;0.68;;;24.00;46.80;23.10;101853.00;;;;5017223;28;20053;-66
2022/07/15 07:30:50;;;;;;;1.80;0.67;;;24.00;46.50;23.10;101848.00;;;;5018881;28;20049;-66
2022/07/15 07:33:37;;;;;;;1.70;0.60;;;24.00;47.10;23.10;101840.00;;;;5018883;28;20041;-66
2022/07/15 07:36:26;;;;;;;2.28;0.80;;;24.00;47.20;23.10;101843.00;;;;5024737;28;20076;-66
2022/07/15 07:39:13;;;;;;;1.67;0.40;;;24.00;47.10;23.10;101845.00;;;;5025082;28;20107;-66
2022/07/15 07:41:59;;;;;;;2.90;0.73;;;24.00;47.10;23.10;101847.00;;;;5020795;28;20046;-66
2022/07/15 07:44:45;;;;;;;2.35;0.68;;;24.00;47.00;23.10;101846.00;;;;5023325;28;20050;-66
2022/07/15 07:47:40;;;;;;;1.50;0.40;;;24.00;47.00;23.10;101851.00;;;;5022231;28;20037;-66
2022/07/15 07:50:26;;;;;;;2.00;0.57;;;24.00;46.80;23.10;101839.00;;;;5020748;28;20321;-66
2022/07/15 07:53:12;;;;;;;0.65;0.40;;;24.10;47.00;23.10;101842.00;;;;5024722;28;20037;-66
2022/07/15 07:55:58;;;;;;;1.50;0.50;;;24.00;46.80;23.10;101853.00;;;;5037574;28;20048;-66
2022/07/15 07:58:45;;;;;;;1.45;0.60;;;24.00;47.00;23.10;101854.00;;;;5023332;28;20033;-66
2022/07/15 08:01:31;;;;;;;1.35;0.50;;;24.00;47.00;23.10;101853.00;;;;5019848;28;20104;-66
2022/07/15 08:04:17;;;;;;;1.65;0.52;;;24.10;46.60;23.10;101846.00;;;;5023564;28;20051;-66
2022/07/15 08:07:06;;;;;;;1.90;0.60;;;24.00;46.30;23.10;101861.00;;;;5018836;28;20047;-66
2022/07/15 08:09:52;;;;;;;3.70;1.15;;;24.00;46.60;23.10;101861.00;;;;5019818;28;20057;-66
2022/07/15 08:12:38;;;;;;;1.77;1.10;;;24.00;46.80;23.10;101853.00;;;;5024868;28;20037;-66
2022/07/15 08:15:24;;;;;;;0.80;0.43;;;24.00;46.60;23.10;101850.00;;;;5021233;28;20041;-66
2022/07/15 08:18:10;;;;;;;1.80;0.30;;;24.10;46.80;23.10;101861.00;;;;5025373;28;20124;-66
2022/07/15 08:20:56;;;;;;;1.58;0.47;;;24.10;46.80;23.10;101857.00;;;;5038162;28;20037;-66
2022/07/15 08:23:42;;;;;;;1.73;0.60;;;24.00;46.70;23.20;101852.00;;;;5025665;28;20328;-66
2022/07/15 08:26:28;;;;;;;2.03;0.60;;;24.00;46.70;23.20;101853.00;;;;5020522;28;20403;-66
2022/07/15 08:29:14;;;;;;;1.52;0.50;;;24.00;46.60;23.20;101860.00;;;;5022399;28;20071;-66
2022/07/15 08:32:01;;;;;;;3.00;0.50;;;24.10;46.70;23.20;101863.00;;;;5019765;28;20048;-66
2022/07/15 08:34:47;;;;;;;1.90;0.50;;;24.10;46.70;23.20;101856.00;;;;5018381;28;20314;-66
2022/07/15 08:37:33;;;;;;;2.40;0.60;;;24.10;46.70;23.20;101848.00;;;;5020291;28;20489;-66
2022/07/15 08:40:19;;;;;;;2.40;0.75;;;24.10;46.60;23.20;101848.00;;;;5024099;28;20042;-66
2022/07/15 08:43:09;;;;;;;1.38;0.40;;;24.10;46.70;23.20;101852.00;;;;5018434;28;20399;-67
2022/07/15 08:45:55;;;;;;;0.65;0.30;;;24.10;46.30;23.20;101845.00;;;;5029378;28;20131;-66
2022/07/15 08:48:43;;;;;;;2.38;0.52;;;24.10;46.60;23.20;101852.00;;;;5030956;28;20057;-66
2022/07/15 08:51:29;;;;;;;2.58;0.85;;;24.10;46.70;23.20;101849.00;;;;5006078;28;20069;-66
2022/07/15 08:54:16;;;;;;;0.95;0.60;;;24.00;46.60;23.20;101855.00;;;;5028029;28;20045;-66
2022/07/15 08:57:02;;;;;;;0.90;0.65;;;24.10;46.60;23.20;101855.00;;;;5023840;28;20047;-65
2022/07/15 08:59:48;;;;;;;1.17;0.70;;;24.10;46.60;23.20;101850.00;;;;5016803;28;20033;-66
2022/07/15 09:02:37;;;;;;;1.58;0.60;;;24.10;46.60;23.20;101853.00;;;;5015893;28;20051;-65
2022/07/15 09:05:34;;;;;;;1.15;0.50;;;24.10;46.60;23.20;101857.00;;;;5026780;28;20341;-65
2022/07/15 09:08:20;;;;;;;0.80;0.47;;;24.10;46.40;23.20;101855.00;;;;5023200;28;20047;-65
2022/07/15 09:11:08;;;;;;;3.08;0.60;;;24.20;46.40;23.20;101857.00;;;;5027397;28;20379;-65
2022/07/15 09:13:54;;;;;;;2.92;0.50;;;24.00;46.40;23.20;101862.00;;;;5023820;28;20050;-65
2022/07/15 09:16:40;;;;;;;2.00;0.43;;;24.10;46.60;23.20;101858.00;;;;5017261;28;20045;-65
2022/07/15 09:19:26;;;;;;;1.52;0.50;;;24.10;46.30;23.20;101854.00;;;;5022387;28;20042;-63
2022/07/15 09:22:12;;;;;;;1.63;0.47;;;24.10;46.40;23.20;101852.00;;;;5025405;28;20092;-63
2022/07/15 09:25:07;;;;;;;2.22;0.60;;;24.10;46.30;23.20;101850.00;;;;5016310;28;20041;-64
2022/07/15 09:27:53;;;;;;;2.60;0.50;;;24.10;46.30;23.20;101852.00;;;;5027965;28;20113;-63
2022/07/15 09:33:57;;;;;;;0.70;0.30;;;24.10;46.30;23.20;101855.00;;;;5021761;28;20045;-64
2022/07/15 09:36:52;;;;;;;2.00;0.52;;;24.10;46.20;23.20;101857.00;;;;5050206;28;20422;-64
2022/07/15 09:39:53;;;;;;;0.52;0.30;;;24.10;46.20;23.20;101857.00;;;;5016101;28;20048;-64
2022/07/15 09:43:05;;;;;;;1.55;0.50;;;24.10;46.00;23.20;101855.00;;;;5020660;28;20445;-64
2022/07/15 09:45:59;;;;;;;2.05;0.50;;;24.10;46.20;23.20;101854.00;;;;5022709;28;20045;-63
2022/07/15 09:48:47;;;;;;;1.08;0.50;;;24.20;46.20;23.20;101848.00;;;;5020042;28;20050;-63
2022/07/15 09:51:54;;;;;;;1.05;0.40;;;24.10;46.10;23.20;101859.00;;;;5023434;28;20502;-63
2022/07/15 09:54:43;;;;;;;2.58;0.30;;;24.20;46.10;23.20;101856.00;;;;5024377;28;20785;-64
2022/07/15 09:57:29;;;;;;;1.48;0.50;;;24.20;46.20;23.20;101855.00;;;;5015034;28;20026;-64
2022/07/15 10:00:17;;;;;;;0.57;0.30;;;24.20;46.10;23.20;101864.00;;;;5018671;28;20760;-63
2022/07/15 10:03:03;;;;;;;0.77;0.30;;;24.20;46.10;23.20;101856.00;;;;5015763;28;20045;-63
2022/07/15 10:05:56;;;;;;;0.88;0.30;;;24.20;46.10;23.20;101860.00;;;;5020721;28;20601;-64
2022/07/15 10:08:46;;;;;;;2.28;0.57;;;24.20;46.10;23.20;101860.00;;;;5011259;28;20053;-63
2022/07/15 10:11:35;;;;;;;0.98;0.40;;;24.20;46.10;23.20;101855.00;;;;5019971;28;20099;-68
2022/07/15 10:15:39;;;;;;;0.85;0.32;;;24.20;46.00;23.20;101860.00;;;;5040111;28;20100;-65
2022/07/15 10:18:55;;;;;;;1.63;0.47;;;24.20;46.10;23.20;101860.00;;;;4983502;28;20034;-65
2022/07/15 10:22:18;;;;;;;0.98;0.30;;;24.20;46.60;23.20;101844.00;;;;4989423;28;20102;-65
2022/07/15 10:25:41;;;;;;;1.20;0.35;;;24.20;46.00;23.20;101842.00;;;;5046209;28;20124;-65
2022/07/15 10:28:58;;;;;;;1.13;0.38;;;24.20;46.10;23.20;101851.00;;;;5011852;28;20107;-65
2022/07/15 10:31:44;;;;;;;1.48;0.45;;;24.10;46.00;23.20;101853.00;;;;5012614;28;20500;-65
2022/07/15 10:34:41;;;;;;;0.65;0.30;;;24.20;46.10;23.20;101854.00;;;;5006397;28;20088;-65
2022/07/15 10:37:28;;;;;;;1.73;0.30;;;24.20;46.10;23.20;101853.00;;;;5010890;28;20036;-65
2022/07/15 10:40:14;;;;;;;0.40;0.20;;;24.20;46.20;23.20;101849.00;;;;5024874;28;20041;-65
2022/07/15 10:43:01;;;;;;;1.77;0.43;;;24.20;46.10;23.20;101843.00;;;;5029026;28;20052;-65
2022/07/15 10:46:17;;;;;;;0.55;0.20;;;24.20;46.00;23.20;101839.00;;;;5022330;28;20049;-65
2022/07/15 10:49:03;;;;;;;1.35;0.25;;;24.20;45.70;23.20;101834.00;;;;5028388;28;20107;-65
2022/07/15 10:51:49;;;;;;;1.27;0.32;;;24.20;45.40;23.20;101830.00;;;;5019159;28;20096;-65
2022/07/15 10:54:35;;;;;;;1.85;0.30;;;24.20;45.40;23.20;101827.00;;;;5018359;28;20389;-66
2022/07/15 10:57:39;;;;;;;2.83;0.57;;;24.20;45.70;23.20;101820.00;;;;5025280;28;20037;-66
2022/07/15 11:00:33;;;;;;;0.20;0.10;;;24.20;45.40;23.20;101822.00;;;;5023247;28;20079;-66
2022/07/15 11:03:20;;;;;;;0.93;0.38;;;24.20;45.40;23.20;101821.00;;;;5025327;28;20399;-66
2022/07/15 11:06:06;;;;;;;0.60;0.28;;;24.20;45.70;23.20;101815.00;;;;5024768;28;20042;-65
2022/07/15 11:08:54;;;;;;;1.75;0.30;;;24.20;45.70;23.20;101805.00;;;;5022855;28;20327;-65
2022/07/15 11:11:43;;;;;;;1.05;0.20;;;24.20;45.80;23.20;101808.00;;;;5023573;28;20415;-65
2022/07/15 11:14:50;;;;;;;0.70;0.40;;;24.20;45.30;23.20;101797.00;;;;5031003;28;20042;-65
2022/07/15 11:17:36;;;;;;;2.05;0.30;;;24.20;45.50;23.20;101804.00;;;;5024497;28;20342;-65
2022/07/15 11:20:30;;;;;;;1.65;0.57;;;24.20;45.70;23.20;101809.00;;;;5029827;28;20040;-66
2022/07/15 11:23:18;;;;;;;1.27;0.25;;;24.20;45.10;23.30;101804.00;;;;5026649;28;20562;-66
2022/07/15 11:26:04;;;;;;;0.50;0.15;;;24.20;45.40;23.30;101798.00;;;;5022233;28;20053;-66
2022/07/15 11:28:55;;;;;;;1.17;0.30;;;24.30;45.60;23.30;101796.00;;;;5024613;28;20045;-66
2022/07/15 11:31:42;;;;;;;0.47;0.28;;;24.30;45.80;23.20;101780.00;;;;5021985;28;20618;-65
2022/07/15 11:34:47;;;;;;;0.73;0.30;;;24.30;46.40;23.20;101787.00;;;;5020055;28;20044;-66
2022/07/15 11:37:34;;;;;;;0.60;0.28;;;24.20;45.70;23.20;101789.00;;;;5039878;28;20103;-66
2022/07/15 11:46:30;;;;;;;0.35;0.10;;;24.30;45.90;23.30;101786.00;;;;5021956;28;20502;-66
2022/07/15 11:49:33;;;;;;;2.75;0.40;;;24.20;45.80;23.20;101793.00;;;;5026774;28;20045;-65
2022/07/15 11:52:24;;;;;;;0.38;0.22;;;24.30;45.60;23.30;101795.00;;;;5013065;28;20040;-65
2022/07/15 11:55:11;;;;;;;1.35;0.30;;;24.30;45.70;23.30;101791.00;;;;5035690;28;20497;-71
2022/07/15 11:57:57;;;;;;;1.75;0.30;;;24.30;45.70;23.30;101786.00;;;;5025688;28;20083;-71
2022/07/15 12:00:49;;;;;;;0.68;0.28;;;24.30;45.70;23.30;101788.00;;;;5020386;28;20112;-68
2022/07/15 12:03:41;;;;;;;2.05;0.30;;;24.20;45.70;23.30;101787.00;;;;5022417;28;20052;-65
2022/07/15 12:06:32;;;;;;;1.85;0.28;;;24.30;45.80;23.30;101794.00;;;;5021028;28;20087;-65
2022/07/15 12:09:18;;;;;;;0.93;0.28;;;24.30;45.80;23.30;101788.00;;;;5024599;28;20084;-65
2022/07/15 12:12:04;;;;;;;0.80;0.20;;;24.30;45.80;23.30;101791.00;;;;5023529;28;20048;-65
2022/07/15 12:14:50;;;;;;;1.48;0.10;;;24.30;45.90;23.30;101792.00;;;;5021476;28;20074;-65
2022/07/15 12:17:36;;;;;;;1.00;0.20;;;24.30;45.70;23.30;101785.00;;;;5038618;28;20043;-66
2022/07/15 12:20:22;;;;;;;2.65;0.35;;;24.30;45.80;23.30;101795.00;;;;5018579;28;20458;-65
2022/07/15 12:23:10;;;;;;;1.77;0.73;;;24.30;45.80;23.30;101796.00;;;;5026186;28;20045;-65
2022/07/15 12:26:07;;;;;;;0.57;0.20;;;24.40;45.80;23.30;101792.00;;;;5020648;28;20056;-65
2022/07/15 12:28:55;;;;;;;1.20;0.10;;;24.30;45.60;23.30;101795.00;;;;5009375;28;20054;-65
2022/07/15 12:31:43;;;;;;;0.45;0.10;;;24.40;45.80;23.30;101806.00;;;;5019070;28;20049;-65
2022/07/15 12:34:47;;;;;;;1.00;0.22;;;24.20;45.60;23.30;101796.00;;;;5019614;28;20394;-65